createdAt,value
2019-05-16T00:00:53.863Z,2.30
2019-05-16T00:01:53.850Z,2.60
2019-05-16T00:02:53.849Z,2.60
2019-05-16T00:03:53.828Z,2.60
2019-05-16T00:04:53.837Z,2.80
2019-05-16T00:05:54.618Z,2.70
2019-05-16T00:06:53.805Z,2.60
2019-05-16T00:07:53.790Z,2.50
2019-05-16T00:08:53.774Z,2.40
2019-05-16T00:09:53.789Z,2.60
2019-05-16T00:10:53.757Z,2.70
2019-05-16T00:11:53.757Z,2.60
2019-05-16T00:12:53.733Z,2.50
2019-05-16T00:13:53.723Z,2.40
2019-05-16T00:14:53.711Z,2.30
2019-05-16T00:15:53.727Z,2.70
2019-05-16T00:16:53.693Z,2.50
2019-05-16T00:17:53.680Z,2.30
2019-05-16T00:18:53.668Z,2.40
2019-05-16T00:19:53.657Z,2.50
2019-05-16T00:20:53.678Z,2.70
2019-05-16T00:21:53.636Z,2.50
2019-05-16T00:22:53.626Z,2.60
2019-05-16T00:23:53.621Z,2.30
2019-05-16T00:24:53.620Z,2.60
2019-05-16T00:25:53.594Z,2.70
2019-05-16T00:26:53.606Z,2.50
2019-05-16T00:27:53.573Z,2.60
2019-05-16T00:28:53.571Z,2.60
2019-05-16T00:29:53.563Z,2.80
2019-05-16T00:30:53.541Z,2.60
2019-05-16T00:31:53.552Z,2.50
2019-05-16T00:32:53.520Z,2.60
2019-05-16T00:33:53.521Z,2.60
2019-05-16T00:34:53.499Z,2.50
2019-05-16T00:36:02.464Z,2.30
2019-05-16T00:36:54.496Z,2.70
2019-05-16T00:37:53.468Z,2.50
2019-05-16T00:38:53.467Z,2.50
2019-05-16T00:39:53.448Z,2.60
2019-05-16T00:40:53.437Z,2.70
2019-05-16T00:41:53.444Z,2.60
2019-05-16T00:42:53.430Z,2.40
2019-05-16T00:43:53.406Z,2.60
2019-05-16T00:44:53.395Z,2.60
2019-05-16T00:45:53.384Z,2.80
2019-05-16T00:46:53.392Z,2.60
2019-05-16T00:47:53.373Z,2.80
2019-05-16T00:48:53.353Z,2.50
2019-05-16T00:49:53.343Z,2.70
2019-05-16T00:50:53.332Z,2.60
2019-05-16T00:51:53.353Z,2.90
2019-05-16T00:52:53.311Z,2.40
2019-05-16T00:53:53.302Z,2.50
2019-05-16T00:54:53.288Z,2.60
2019-05-16T00:55:53.278Z,2.50
2019-05-16T00:56:53.278Z,2.60
2019-05-16T00:57:53.276Z,2.80
2019-05-16T00:58:53.249Z,2.20
2019-05-16T00:59:53.236Z,2.50
2019-05-16T01:00:53.236Z,2.60
2019-05-16T01:01:53.236Z,2.60
2019-05-16T01:02:53.230Z,2.70
2019-05-16T01:03:53.196Z,2.50
2019-05-16T01:04:53.186Z,2.70
2019-05-16T01:05:53.183Z,2.60
2019-05-16T01:06:53.162Z,2.40
2019-05-16T01:07:53.153Z,2.60
2019-05-16T01:08:53.162Z,2.80
2019-05-16T01:09:53.136Z,2.60
2019-05-16T01:10:53.122Z,2.60
2019-05-16T01:11:53.113Z,2.70
2019-05-16T01:12:53.100Z,2.50
2019-05-16T01:13:53.108Z,2.60
2019-05-16T01:14:53.089Z,2.80
2019-05-16T01:15:53.066Z,2.40
2019-05-16T01:16:53.059Z,2.60
2019-05-16T01:17:53.046Z,2.40
2019-05-16T01:18:53.066Z,2.50
2019-05-16T01:19:53.024Z,2.40
2019-05-16T01:20:53.019Z,2.50
2019-05-16T01:21:53.004Z,2.40
2019-05-16T01:22:52.994Z,2.50
2019-05-16T01:23:53.018Z,2.60
2019-05-16T01:24:52.978Z,2.50
2019-05-16T01:25:52.966Z,2.50
2019-05-16T01:26:52.952Z,2.70
2019-05-16T01:27:52.952Z,2.80
2019-05-16T01:28:52.956Z,2.70
2019-05-16T01:29:52.920Z,2.70
2019-05-16T01:30:52.914Z,2.50
2019-05-16T01:31:52.899Z,2.60
2019-05-16T01:32:52.902Z,2.50
2019-05-16T01:33:52.897Z,2.30
2019-05-16T01:34:52.873Z,2.60
2019-05-16T01:35:52.856Z,2.60
2019-05-16T01:36:52.853Z,2.50
2019-05-16T01:37:52.836Z,2.50
2019-05-16T01:38:52.848Z,2.40
2019-05-16T01:39:52.814Z,2.60
2019-05-16T01:40:52.804Z,2.60
2019-05-16T01:41:52.806Z,2.60
2019-05-16T01:42:52.786Z,2.60
2019-05-16T01:43:52.818Z,2.90
2019-05-16T01:44:52.765Z,2.70
2019-05-16T01:45:52.763Z,2.40
2019-05-16T01:46:52.743Z,2.70
2019-05-16T01:47:52.730Z,2.60
2019-05-16T01:48:52.719Z,2.80
2019-05-16T01:49:52.731Z,2.60
2019-05-16T01:50:52.714Z,2.70
2019-05-16T01:51:52.689Z,2.70
2019-05-16T01:52:52.681Z,2.60
2019-05-16T01:53:52.669Z,2.80
2019-05-16T01:54:52.687Z,2.70
2019-05-16T01:55:52.647Z,2.70
2019-05-16T01:56:52.637Z,2.50
2019-05-16T01:57:52.626Z,2.50
2019-05-16T01:58:52.616Z,2.80
2019-05-16T01:59:52.634Z,2.60
2019-05-16T02:01:11.199Z,2.70
2019-05-16T02:01:53.586Z,2.60
2019-05-16T02:02:52.573Z,2.70
2019-05-16T02:03:52.571Z,2.80
2019-05-16T02:04:52.580Z,2.70
2019-05-16T02:05:52.542Z,2.40
2019-05-16T02:06:54.865Z,2.70
2019-05-16T02:07:52.523Z,2.70
2019-05-16T02:08:52.523Z,2.70
2019-05-16T02:09:52.500Z,2.70
2019-05-16T02:10:52.510Z,2.70
2019-05-16T02:11:52.479Z,2.70
2019-05-16T02:12:52.483Z,2.90
2019-05-16T02:13:52.464Z,2.90
2019-05-16T02:14:52.448Z,2.80
2019-05-16T02:15:52.456Z,2.90
2019-05-16T02:16:52.427Z,2.60
2019-05-16T02:17:52.428Z,2.90
2019-05-16T02:18:52.410Z,3.10
2019-05-16T02:19:52.397Z,2.70
2019-05-16T02:20:52.413Z,2.80
2019-05-16T02:21:52.385Z,2.90
2019-05-16T02:22:52.364Z,2.80
2019-05-16T02:23:52.372Z,2.80
2019-05-16T02:24:52.343Z,2.70
2019-05-16T02:25:52.334Z,2.60
2019-05-16T02:26:52.638Z,2.90
2019-05-16T02:27:52.312Z,2.90
2019-05-16T02:28:52.303Z,2.80
2019-05-16T02:30:00.092Z,2.90
2019-05-16T02:30:52.311Z,2.60
2019-05-16T02:31:52.305Z,2.60
2019-05-16T02:32:52.659Z,2.80
2019-05-16T02:33:52.262Z,3.10
2019-05-16T02:34:52.243Z,2.70
2019-05-16T02:35:55.544Z,2.90
2019-05-16T02:37:10.654Z,3.00
2019-05-16T02:37:55.434Z,2.80
2019-05-16T02:38:55.536Z,2.90
2019-05-16T02:39:54.480Z,2.70
2019-05-16T02:40:55.215Z,2.80
2019-05-16T02:41:52.198Z,2.60
2019-05-16T02:42:55.842Z,3.00
2019-05-16T02:43:52.149Z,2.70
2019-05-16T02:44:52.137Z,2.80
2019-05-16T02:45:52.319Z,2.90
2019-05-16T02:46:52.169Z,2.90
2019-05-16T02:47:52.105Z,2.90
2019-05-16T02:48:52.203Z,2.60
2019-05-16T02:49:52.084Z,2.80
2019-05-16T02:50:52.073Z,3.00
2019-05-16T02:51:52.131Z,3.30
2019-05-16T02:52:52.181Z,2.70
2019-05-16T02:53:52.070Z,2.60
2019-05-16T02:54:52.141Z,2.80
2019-05-16T02:55:52.261Z,3.00
2019-05-16T02:56:52.043Z,3.10
2019-05-16T02:57:52.001Z,2.90
2019-05-16T02:58:52.422Z,2.90
2019-05-16T02:59:51.984Z,3.10
2019-05-16T03:00:51.992Z,2.90
2019-05-16T03:01:52.421Z,2.80
2019-05-16T03:02:51.948Z,2.80
2019-05-16T03:03:52.114Z,3.00
2019-05-16T03:04:52.067Z,3.00
2019-05-16T03:05:51.915Z,2.80
2019-05-16T03:06:51.902Z,3.00
2019-05-16T03:07:52.350Z,3.20
2019-05-16T03:08:51.882Z,2.80
2019-05-16T03:09:51.877Z,3.20
2019-05-16T03:10:52.317Z,2.80
2019-05-16T03:11:51.852Z,2.90
2019-05-16T03:12:51.859Z,3.20
2019-05-16T03:13:51.831Z,2.90
2019-05-16T03:14:54.638Z,2.90
2019-05-16T03:15:51.824Z,3.20
2019-05-16T03:16:51.814Z,2.80
2019-05-16T03:17:51.822Z,3.00
2019-05-16T03:18:51.821Z,2.80
2019-05-16T03:19:51.774Z,2.90
2019-05-16T03:20:51.758Z,3.20
2019-05-16T03:21:51.753Z,3.10
2019-05-16T03:22:52.109Z,3.00
2019-05-16T03:23:51.757Z,3.20
2019-05-16T03:24:51.724Z,3.10
2019-05-16T03:25:51.724Z,3.00
2019-05-16T03:26:51.693Z,3.20
2019-05-16T03:27:51.700Z,3.00
2019-05-16T03:28:52.354Z,3.30
2019-05-16T03:29:51.663Z,3.20
2019-05-16T03:30:54.466Z,3.20
2019-05-16T03:31:54.233Z,3.00
2019-05-16T03:32:54.840Z,3.40
2019-05-16T03:33:58.809Z,3.20
2019-05-16T03:34:54.898Z,3.70
2019-05-16T03:35:54.726Z,3.10
2019-05-16T03:36:54.362Z,3.20
2019-05-16T03:37:59.624Z,3.20
2019-05-16T03:38:52.586Z,3.30
2019-05-16T03:39:51.640Z,3.40
2019-05-16T03:40:51.566Z,3.50
2019-05-16T03:41:51.539Z,3.10
2019-05-16T03:42:51.875Z,3.50
2019-05-16T03:43:51.532Z,3.40
2019-05-16T03:44:53.141Z,3.50
2019-05-16T03:45:52.442Z,2.90
2019-05-16T03:46:51.942Z,3.60
2019-05-16T03:47:51.489Z,3.40
2019-05-16T03:48:52.205Z,3.20
2019-05-16T03:49:51.888Z,3.40
2019-05-16T03:50:51.461Z,3.60
2019-05-16T03:51:51.457Z,3.10
2019-05-16T03:52:51.446Z,3.50
2019-05-16T03:53:51.458Z,3.30
2019-05-16T03:54:51.422Z,3.20
2019-05-16T03:55:52.031Z,4.00
2019-05-16T03:56:51.542Z,3.90
2019-05-16T03:57:51.703Z,4.00
2019-05-16T03:58:51.372Z,4.00
2019-05-16T03:59:51.876Z,4.00
2019-05-16T04:00:53.177Z,3.70
2019-05-16T04:01:51.358Z,3.70
2019-05-16T04:02:52.305Z,4.30
2019-05-16T04:03:51.655Z,3.90
2019-05-16T04:04:51.387Z,4.00
2019-05-16T04:05:52.557Z,3.60
2019-05-16T04:06:51.272Z,3.90
2019-05-16T04:07:56.775Z,3.70
2019-05-16T04:08:52.263Z,3.80
2019-05-16T04:09:51.244Z,3.80
2019-05-16T04:10:52.060Z,3.90
2019-05-16T04:11:51.222Z,3.90
2019-05-16T04:12:51.426Z,4.20
2019-05-16T04:13:51.207Z,4.10
2019-05-16T04:14:51.465Z,3.60
2019-05-16T04:15:52.402Z,3.40
2019-05-16T04:16:51.303Z,3.70
2019-05-16T04:17:51.446Z,4.00
2019-05-16T04:18:51.559Z,4.00
2019-05-16T04:19:51.150Z,3.70
2019-05-16T04:20:52.368Z,4.10
2019-05-16T04:21:51.364Z,3.80
2019-05-16T04:22:51.464Z,3.90
2019-05-16T04:23:51.122Z,3.80
2019-05-16T04:24:51.433Z,3.90
2019-05-16T04:25:52.994Z,3.70
2019-05-16T04:26:51.840Z,3.80
2019-05-16T04:27:51.130Z,3.80
2019-05-16T04:28:51.558Z,3.80
2019-05-16T04:29:51.539Z,4.00
2019-05-16T04:30:51.109Z,4.00
2019-05-16T04:31:51.136Z,3.80
2019-05-16T04:32:51.270Z,4.20
2019-05-16T04:33:51.822Z,3.80
2019-05-16T04:34:51.322Z,3.60
2019-05-16T04:35:52.652Z,3.90
2019-05-16T04:36:51.687Z,3.60
2019-05-16T04:37:51.404Z,3.70
2019-05-16T04:38:51.372Z,3.90
2019-05-16T04:39:50.936Z,4.00
2019-05-16T04:40:51.766Z,3.70
2019-05-16T04:41:51.143Z,3.70
2019-05-16T04:42:51.455Z,3.60
2019-05-16T04:43:51.021Z,3.90
2019-05-16T04:44:51.713Z,3.60
2019-05-16T04:45:52.269Z,3.90
2019-05-16T04:46:51.349Z,3.80
2019-05-16T04:47:51.410Z,4.00
2019-05-16T04:48:51.102Z,3.70
2019-05-16T04:49:51.972Z,3.90
2019-05-16T04:50:51.888Z,4.00
2019-05-16T04:51:51.637Z,3.90
2019-05-16T04:52:51.753Z,4.00
2019-05-16T04:53:51.095Z,4.00
2019-05-16T04:54:51.342Z,4.10
2019-05-16T04:55:51.818Z,4.20
2019-05-16T04:56:51.298Z,3.70
2019-05-16T04:57:51.283Z,3.90
2019-05-16T04:58:51.395Z,4.10
2019-05-16T04:59:51.036Z,3.90
2019-05-16T05:00:51.762Z,4.00
2019-05-16T05:01:51.301Z,4.10
2019-05-16T05:02:51.858Z,4.20
2019-05-16T05:04:02.090Z,3.90
2019-05-16T05:04:51.686Z,4.10
2019-05-16T05:05:51.696Z,3.70
2019-05-16T05:06:51.319Z,3.80
2019-05-16T05:07:51.249Z,3.90
2019-05-16T05:08:58.413Z,3.50
2019-05-16T05:09:51.632Z,4.20
2019-05-16T05:10:51.423Z,4.10
2019-05-16T05:11:52.006Z,4.00
2019-05-16T05:12:51.619Z,4.00
2019-05-16T05:13:50.795Z,4.40
2019-05-16T05:14:51.157Z,3.90
2019-05-16T05:15:51.075Z,4.20
2019-05-16T05:16:50.818Z,4.00
2019-05-16T05:17:50.536Z,3.80
2019-05-16T05:18:51.510Z,4.20
2019-05-16T05:19:50.831Z,4.40
2019-05-16T05:20:52.303Z,4.00
2019-05-16T05:21:51.487Z,3.90
2019-05-16T05:22:50.471Z,4.00
2019-05-16T05:23:50.974Z,4.30
2019-05-16T05:24:50.860Z,4.50
2019-05-16T05:25:51.472Z,4.30
2019-05-16T05:26:50.512Z,4.40
2019-05-16T05:27:50.420Z,4.00
2019-05-16T05:28:50.910Z,3.90
2019-05-16T05:29:50.426Z,4.00
2019-05-16T05:30:50.756Z,4.20
2019-05-16T05:31:54.850Z,3.90
2019-05-16T05:32:51.379Z,4.50
2019-05-16T05:33:50.815Z,4.40
2019-05-16T05:34:50.500Z,4.50
2019-05-16T05:35:51.026Z,4.30
2019-05-16T05:36:51.153Z,4.30
2019-05-16T05:37:50.881Z,4.20
2019-05-16T05:39:06.292Z,4.60
2019-05-16T05:39:51.340Z,4.40
2019-05-16T05:40:51.075Z,4.20
2019-05-16T05:41:50.538Z,3.90
2019-05-16T05:42:50.587Z,4.20
2019-05-16T05:43:50.504Z,4.20
2019-05-16T05:44:50.793Z,4.10
2019-05-16T05:45:51.237Z,4.40
2019-05-16T05:46:51.173Z,4.10
2019-05-16T05:47:50.649Z,4.10
2019-05-16T05:48:50.695Z,4.20
2019-05-16T05:49:50.182Z,4.30
2019-05-16T05:50:50.845Z,4.20
2019-05-16T05:51:50.238Z,4.30
2019-05-16T05:52:51.127Z,4.50
2019-05-16T05:53:50.972Z,4.20
2019-05-16T05:54:50.365Z,4.50
2019-05-16T05:55:51.564Z,4.10
2019-05-16T05:56:50.292Z,4.00
2019-05-16T05:57:50.647Z,4.00
2019-05-16T05:58:51.239Z,3.70
2019-05-16T05:59:50.129Z,3.70
2019-05-16T06:00:51.942Z,3.60
2019-05-16T06:01:51.659Z,3.60
2019-05-16T06:02:50.782Z,3.80
2019-05-16T06:03:50.646Z,3.60
2019-05-16T06:04:50.273Z,3.70
2019-05-16T06:05:50.614Z,3.80
2019-05-16T06:06:50.470Z,3.70
2019-05-16T06:07:51.003Z,3.60
2019-05-16T06:08:50.318Z,3.70
2019-05-16T06:09:55.579Z,3.40
2019-05-16T06:10:50.974Z,3.50
2019-05-16T06:11:50.279Z,3.50
2019-05-16T06:12:50.281Z,3.40
2019-05-16T06:13:50.223Z,3.40
2019-05-16T06:14:50.445Z,3.40
2019-05-16T06:15:51.116Z,3.60
2019-05-16T06:16:50.835Z,3.60
2019-05-16T06:17:50.926Z,3.20
2019-05-16T06:18:50.415Z,3.60
2019-05-16T06:19:49.956Z,3.30
2019-05-16T06:20:51.287Z,3.30
2019-05-16T06:21:50.413Z,3.40
2019-05-16T06:22:50.968Z,3.30
2019-05-16T06:23:50.825Z,3.50
2019-05-16T06:24:50.474Z,3.00
2019-05-16T06:25:50.802Z,3.30
2019-05-16T06:26:50.456Z,3.00
2019-05-16T06:27:51.210Z,3.10
2019-05-16T06:28:50.455Z,3.20
2019-05-16T06:29:49.813Z,3.10
2019-05-16T06:30:51.438Z,3.10
2019-05-16T06:31:49.813Z,3.10
2019-05-16T06:32:50.193Z,2.90
2019-05-16T06:33:50.220Z,3.40
2019-05-16T06:34:50.790Z,3.00
2019-05-16T06:35:51.455Z,3.10
2019-05-16T06:36:50.969Z,3.00
2019-05-16T06:37:50.046Z,3.00
2019-05-16T06:38:49.938Z,2.90
2019-05-16T06:39:50.275Z,3.00
2019-05-16T06:40:52.208Z,3.10
2019-05-16T06:41:50.884Z,2.80
2019-05-16T06:42:51.047Z,2.90
2019-05-16T06:43:50.666Z,2.80
2019-05-16T06:44:50.359Z,2.80
2019-05-16T06:45:51.435Z,2.80
2019-05-16T06:47:00.524Z,2.90
2019-05-16T06:47:50.593Z,2.70
2019-05-16T06:48:50.583Z,2.70
2019-05-16T06:49:50.998Z,3.10
2019-05-16T06:50:51.494Z,2.80
2019-05-16T06:51:51.490Z,3.00
2019-05-16T06:52:50.235Z,2.90
2019-05-16T06:53:50.082Z,2.90
2019-05-16T06:54:50.413Z,3.10
2019-05-16T06:55:49.883Z,3.00
2019-05-16T06:56:50.953Z,2.90
2019-05-16T06:57:50.373Z,2.90
2019-05-16T06:58:52.047Z,3.00
2019-05-16T06:59:49.990Z,2.90
2019-05-16T07:00:52.115Z,3.00
2019-05-16T07:01:50.081Z,3.10
2019-05-16T07:02:50.140Z,2.80
2019-05-16T07:03:50.767Z,2.60
2019-05-16T07:04:50.632Z,3.00
2019-05-16T07:05:50.418Z,3.00
2019-05-16T07:06:58.741Z,3.50
2019-05-16T07:07:50.895Z,3.10
2019-05-16T07:08:50.687Z,3.20
2019-05-16T07:09:59.907Z,2.80
2019-05-16T07:10:50.983Z,3.30
2019-05-16T07:11:50.423Z,3.10
2019-05-16T07:12:50.440Z,3.10
2019-05-16T07:13:51.951Z,2.90
2019-05-16T07:14:50.527Z,3.40
2019-05-16T07:15:50.162Z,3.10
2019-05-16T07:16:49.731Z,3.20
2019-05-16T07:17:50.673Z,3.20
2019-05-16T07:18:50.615Z,3.20
2019-05-16T07:19:50.219Z,3.00
2019-05-16T07:20:51.035Z,3.30
2019-05-16T07:21:50.882Z,2.90
2019-05-16T07:22:50.288Z,3.00
2019-05-16T07:23:51.213Z,3.40
2019-05-16T07:24:50.433Z,2.90
2019-05-16T07:25:50.463Z,2.90
2019-05-16T07:26:50.054Z,2.80
2019-05-16T07:27:50.986Z,2.70
2019-05-16T07:28:51.527Z,2.90
2019-05-16T07:29:50.814Z,2.80
2019-05-16T07:30:49.997Z,3.10
2019-05-16T07:31:52.055Z,2.80
2019-05-16T07:32:49.948Z,2.60
2019-05-16T07:33:50.230Z,3.00
2019-05-16T07:34:49.834Z,3.00
2019-05-16T07:35:51.321Z,2.90
2019-05-16T07:36:50.180Z,2.70
2019-05-16T07:37:50.027Z,2.60
2019-05-16T07:38:50.692Z,2.80
2019-05-16T07:39:51.068Z,2.70
2019-05-16T07:40:51.085Z,2.60
2019-05-16T07:41:50.899Z,2.70
2019-05-16T07:42:50.971Z,2.30
2019-05-16T07:43:50.513Z,2.30
2019-05-16T07:44:50.549Z,2.20
2019-05-16T07:45:51.213Z,2.20
2019-05-16T07:46:51.603Z,2.20
2019-05-16T07:47:50.988Z,2.60
2019-05-16T07:48:51.887Z,2.30
2019-05-16T07:49:50.164Z,2.50
2019-05-16T07:50:50.054Z,2.40
2019-05-16T07:51:49.870Z,2.30
2019-05-16T07:52:51.094Z,2.20
2019-05-16T07:53:50.534Z,2.30
2019-05-16T07:54:50.687Z,2.50
2019-05-16T07:55:50.886Z,2.10
2019-05-16T07:56:57.215Z,2.00
2019-05-16T07:57:50.620Z,2.30
2019-05-16T07:58:50.709Z,2.00
2019-05-16T07:59:50.696Z,1.80
2019-05-16T08:00:57.883Z,1.90
2019-05-16T08:01:53.698Z,2.10
2019-05-16T08:02:50.618Z,2.00
2019-05-16T08:03:50.939Z,1.80
2019-05-16T08:04:50.151Z,1.70
2019-05-16T08:05:51.250Z,1.90
2019-05-16T08:06:50.222Z,2.00
2019-05-16T08:07:50.851Z,2.00
2019-05-16T08:08:50.855Z,1.90
2019-05-16T08:09:50.513Z,1.90
2019-05-16T08:10:50.954Z,1.80
2019-05-16T08:11:50.175Z,1.70
2019-05-16T08:12:51.090Z,1.80
2019-05-16T08:13:50.788Z,1.90
2019-05-16T08:14:50.178Z,1.70
2019-05-16T08:15:50.404Z,1.60
2019-05-16T08:16:50.140Z,1.80
2019-05-16T08:17:51.264Z,1.90
2019-05-16T08:18:50.649Z,1.70
2019-05-16T08:19:50.685Z,1.70
2019-05-16T08:20:52.372Z,2.00
2019-05-16T08:21:50.513Z,1.70
2019-05-16T08:22:50.747Z,1.80
2019-05-16T08:23:50.341Z,1.60
2019-05-16T08:24:50.580Z,1.80
2019-05-16T08:25:50.791Z,1.80
2019-05-16T08:26:51.315Z,1.70
2019-05-16T08:27:51.713Z,1.80
2019-05-16T08:28:50.300Z,1.80
2019-05-16T08:29:51.097Z,1.90
2019-05-16T08:30:56.034Z,1.90
2019-05-16T08:31:48.467Z,2.00
2019-05-16T08:32:52.415Z,1.80
2019-05-16T08:33:52.168Z,2.00
2019-05-16T08:34:51.415Z,1.90
2019-05-16T08:35:51.486Z,1.90
2019-05-16T08:36:51.685Z,2.00
2019-05-16T08:37:51.231Z,1.90
2019-05-16T08:38:51.234Z,1.70
2019-05-16T08:39:51.001Z,1.90
2019-05-16T08:41:06.480Z,1.80
2019-05-16T08:41:51.895Z,1.70
2019-05-16T08:42:51.594Z,2.00
2019-05-16T08:43:52.570Z,1.90
2019-05-16T08:44:51.765Z,2.10
2019-05-16T08:45:50.834Z,2.10
2019-05-16T08:46:54.676Z,2.10
2019-05-16T08:47:52.598Z,2.00
2019-05-16T08:48:53.332Z,2.00
2019-05-16T08:49:52.138Z,2.00
2019-05-16T08:50:53.872Z,2.20
2019-05-16T08:51:52.905Z,2.30
2019-05-16T08:52:52.358Z,2.00
2019-05-16T08:53:50.542Z,2.20
2019-05-16T08:54:51.126Z,2.00
2019-05-16T08:55:50.587Z,2.10
2019-05-16T08:56:51.087Z,1.90
2019-05-16T08:57:52.518Z,2.10
2019-05-16T08:58:53.331Z,1.80
2019-05-16T08:59:52.358Z,2.00
2019-05-16T09:00:54.702Z,2.00
2019-05-16T09:02:52.062Z,2.00
2019-05-16T09:03:51.652Z,1.80
2019-05-16T09:04:53.101Z,1.90
2019-05-16T09:05:53.001Z,1.80
2019-05-16T09:06:52.421Z,1.80
2019-05-16T09:07:48.085Z,2.10
2019-05-16T09:08:48.074Z,2.00
2019-05-16T09:09:51.175Z,2.10
2019-05-16T09:10:35.912Z,1.80
2019-05-16T09:10:59.791Z,2.00
2019-05-16T09:11:49.040Z,2.40
2019-05-16T09:12:48.032Z,2.10
2019-05-16T09:13:48.020Z,2.40
2019-05-16T09:14:48.195Z,2.00
2019-05-16T09:15:48.322Z,2.00
2019-05-16T09:16:48.075Z,2.00
2019-05-16T09:17:47.977Z,1.90
2019-05-16T09:18:50.736Z,1.90
2019-05-16T09:19:47.957Z,2.20
2019-05-16T09:20:50.301Z,1.90
2019-05-16T09:21:47.946Z,1.80
2019-05-16T09:22:48.237Z,2.00
2019-05-16T09:23:47.914Z,1.70
2019-05-16T09:24:48.321Z,2.20
2019-05-16T09:25:48.738Z,2.00
2019-05-16T09:26:47.892Z,2.20
2019-05-16T09:27:47.872Z,1.90
2019-05-16T09:28:48.331Z,2.10
2019-05-16T09:29:47.883Z,2.10
2019-05-16T09:30:47.871Z,2.20
2019-05-16T09:32:07.337Z,2.20
2019-05-16T09:32:48.823Z,1.90
2019-05-16T09:33:47.807Z,2.20
2019-05-16T09:34:48.127Z,2.10
2019-05-16T09:35:48.027Z,2.40
2019-05-16T09:36:48.275Z,2.10
2019-05-16T09:37:47.768Z,2.30
2019-05-16T09:38:48.652Z,2.30
2019-05-16T09:39:48.204Z,2.10
2019-05-16T09:40:48.201Z,2.50
2019-05-16T09:41:54.474Z,2.20
2019-05-16T09:42:48.732Z,2.40
2019-05-16T09:43:52.327Z,2.10
2019-05-16T09:44:47.939Z,2.40
2019-05-16T09:45:47.696Z,2.50
2019-05-16T09:46:47.724Z,2.30
2019-05-16T09:47:48.682Z,2.30
2019-05-16T09:48:48.070Z,2.50
2019-05-16T09:49:47.809Z,2.60
2019-05-16T09:50:47.627Z,2.40
2019-05-16T09:51:47.637Z,2.50
2019-05-16T09:52:47.607Z,2.40
2019-05-16T09:53:47.598Z,2.70
2019-05-16T09:54:47.586Z,2.70
2019-05-16T09:55:47.586Z,2.70
2019-05-16T09:56:47.594Z,2.70
2019-05-16T09:57:47.566Z,2.70
2019-05-16T09:58:47.548Z,2.80
2019-05-16T09:59:47.533Z,2.50
2019-05-16T10:00:47.700Z,2.90
2019-05-16T10:01:47.998Z,2.90
2019-05-16T10:02:49.281Z,2.70
2019-05-16T10:03:47.965Z,2.80
2019-05-16T10:04:47.630Z,2.80
2019-05-16T10:05:47.495Z,2.50
2019-05-16T10:06:47.579Z,2.80
2019-05-16T10:07:47.478Z,2.60
2019-05-16T10:08:47.454Z,2.70
2019-05-16T10:09:50.281Z,2.70
2019-05-16T10:10:47.421Z,2.70
2019-05-16T10:11:50.908Z,2.80
2019-05-16T10:12:48.415Z,2.60
2019-05-16T10:13:47.432Z,3.10
2019-05-16T10:14:47.394Z,2.70
2019-05-16T10:15:47.528Z,2.80
2019-05-16T10:16:47.887Z,2.70
2019-05-16T10:17:47.765Z,2.60
2019-05-16T10:18:47.733Z,2.60
2019-05-16T10:19:47.705Z,2.60
2019-05-16T10:20:47.312Z,2.90
2019-05-16T10:21:47.303Z,2.60
2019-05-16T10:22:50.549Z,2.60
2019-05-16T10:23:47.300Z,2.80
2019-05-16T10:24:47.282Z,2.60
2019-05-16T10:25:48.065Z,2.90
2019-05-16T10:26:52.928Z,2.70
2019-05-16T10:27:48.237Z,2.90
2019-05-16T10:28:47.249Z,2.90
2019-05-16T10:29:48.483Z,3.00
2019-05-16T10:30:50.142Z,2.80
2019-05-16T10:31:52.797Z,2.80
2019-05-16T10:32:48.188Z,3.40
2019-05-16T10:33:47.675Z,3.00
2019-05-16T10:34:47.171Z,2.60
2019-05-16T10:35:47.983Z,3.00
2019-05-16T10:36:47.345Z,2.80
2019-05-16T10:37:47.192Z,2.90
2019-05-16T10:38:48.456Z,3.10
2019-05-16T10:39:47.139Z,2.80
2019-05-16T10:40:47.617Z,2.90
2019-05-16T10:41:47.099Z,2.80
2019-05-16T10:42:47.339Z,3.20
2019-05-16T10:43:47.561Z,3.00
2019-05-16T10:44:48.331Z,2.80
2019-05-16T10:45:47.052Z,2.70
2019-05-16T10:46:47.924Z,3.40
2019-05-16T10:47:48.133Z,2.90
2019-05-16T10:48:47.126Z,2.70
2019-05-16T10:49:47.656Z,2.90
2019-05-16T10:50:47.800Z,3.00
2019-05-16T10:51:47.173Z,3.10
2019-05-16T10:52:51.908Z,2.90
2019-05-16T10:54:12.599Z,2.90
2019-05-16T10:54:57.433Z,2.90
2019-05-16T10:55:47.945Z,3.20
2019-05-16T10:56:47.053Z,2.90
2019-05-16T10:57:47.726Z,3.10
2019-05-16T10:59:05.022Z,3.00
2019-05-16T11:00:06.733Z,3.10
2019-05-16T11:01:11.140Z,3.20
2019-05-16T11:01:47.879Z,3.10
2019-05-16T11:02:46.892Z,3.10
2019-05-16T11:03:49.104Z,3.10
2019-05-16T11:04:57.330Z,3.00
2019-05-16T11:06:01.639Z,3.10
2019-05-16T11:06:47.833Z,2.90
2019-05-16T11:07:48.545Z,3.10
2019-05-16T11:08:46.807Z,2.90
2019-05-16T11:09:55.697Z,3.00
2019-05-16T11:10:47.832Z,3.30
2019-05-16T11:11:47.561Z,3.10
2019-05-16T11:12:51.854Z,3.20
2019-05-16T11:13:50.923Z,3.20
2019-05-16T11:14:47.810Z,3.10
2019-05-16T11:15:46.733Z,3.00
2019-05-16T11:16:47.422Z,2.90
2019-05-16T11:17:46.709Z,3.20
2019-05-16T11:18:46.694Z,3.20
2019-05-16T11:19:46.706Z,3.10
2019-05-16T11:20:49.307Z,2.80
2019-05-16T11:21:46.976Z,2.90
2019-05-16T11:22:47.707Z,2.70
2019-05-16T11:23:47.132Z,2.80
2019-05-16T11:24:47.118Z,2.90
2019-05-16T11:25:47.195Z,3.00
2019-05-16T11:26:47.386Z,2.70
2019-05-16T11:27:46.957Z,2.80
2019-05-16T11:28:48.461Z,2.90
2019-05-16T11:29:47.278Z,2.60
2019-05-16T11:30:47.627Z,2.90
2019-05-16T11:31:46.907Z,2.70
2019-05-16T11:32:46.985Z,2.70
2019-05-16T11:33:47.754Z,2.90
2019-05-16T11:34:47.968Z,3.30
2019-05-16T11:35:47.592Z,2.90
2019-05-16T11:36:47.809Z,2.40
2019-05-16T11:37:47.147Z,2.90
2019-05-16T11:38:47.518Z,2.80
2019-05-16T11:39:46.681Z,2.50
2019-05-16T11:40:47.542Z,2.90
2019-05-16T11:41:47.560Z,3.20
2019-05-16T11:42:47.322Z,3.00
2019-05-16T11:43:47.538Z,2.90
2019-05-16T11:44:47.846Z,2.90
2019-05-16T11:45:46.928Z,2.80
2019-05-16T11:46:49.194Z,2.90
2019-05-16T11:47:47.110Z,2.90
2019-05-16T11:48:48.642Z,3.00
2019-05-16T11:49:47.649Z,3.00
2019-05-16T11:50:48.070Z,2.60
2019-05-16T11:51:47.182Z,2.80
2019-05-16T11:52:47.680Z,3.00
2019-05-16T11:53:47.697Z,2.80
2019-05-16T11:54:46.892Z,2.90
2019-05-16T11:55:54.398Z,3.20
2019-05-16T11:56:47.286Z,2.90
2019-05-16T11:57:47.556Z,2.80
2019-05-16T11:58:47.294Z,3.00
2019-05-16T11:59:47.079Z,3.30
2019-05-16T12:00:48.154Z,3.30
2019-05-16T12:01:47.410Z,3.30
2019-05-16T12:02:47.840Z,2.90
2019-05-16T12:03:46.767Z,3.20
2019-05-16T12:04:47.211Z,3.30
2019-05-16T12:05:48.212Z,3.30
2019-05-16T12:06:46.849Z,3.30
2019-05-16T12:07:48.352Z,3.30
2019-05-16T12:08:46.726Z,3.10
2019-05-16T12:09:50.044Z,3.10
2019-05-16T12:10:47.452Z,3.30
2019-05-16T12:11:46.182Z,3.10
2019-05-16T12:12:46.148Z,3.60
2019-05-16T12:13:47.615Z,3.60
2019-05-16T12:14:46.094Z,3.30
2019-05-16T12:15:46.083Z,3.10
2019-05-16T12:16:47.219Z,3.50
2019-05-16T12:18:00.367Z,3.50
2019-05-16T12:18:47.049Z,3.70
2019-05-16T12:19:48.222Z,3.10
2019-05-16T12:20:46.101Z,3.30
2019-05-16T12:21:46.017Z,3.30
2019-05-16T12:22:46.029Z,3.20
2019-05-16T12:23:47.318Z,3.30
2019-05-16T12:24:47.755Z,3.50
2019-05-16T12:25:47.512Z,3.50
2019-05-16T12:26:47.950Z,3.10
2019-05-16T12:27:48.092Z,3.50
2019-05-16T12:28:45.959Z,3.70
2019-05-16T12:29:50.255Z,3.50
2019-05-16T12:30:47.126Z,3.60
2019-05-16T12:31:55.411Z,3.70
2019-05-16T12:32:47.134Z,3.50
2019-05-16T12:33:47.813Z,3.60
2019-05-16T12:34:46.352Z,3.40
2019-05-16T12:35:47.419Z,3.60
2019-05-16T12:36:47.295Z,3.70
2019-05-16T12:37:48.001Z,3.40
2019-05-16T12:38:46.729Z,3.20
2019-05-16T12:39:47.034Z,3.40
2019-05-16T12:40:47.985Z,3.40
2019-05-16T12:41:49.093Z,3.30
2019-05-16T12:42:47.200Z,3.30
2019-05-16T12:43:53.158Z,3.40
2019-05-16T12:44:46.953Z,3.40
2019-05-16T12:45:47.300Z,3.60
2019-05-16T12:46:47.461Z,3.60
2019-05-16T12:47:47.301Z,3.60
2019-05-16T12:48:47.372Z,3.40
2019-05-16T12:49:47.260Z,3.40
2019-05-16T12:50:48.061Z,3.30
2019-05-16T12:51:46.556Z,3.10
2019-05-16T12:52:47.366Z,3.40
2019-05-16T12:53:47.824Z,3.40
2019-05-16T12:54:47.542Z,3.40
2019-05-16T12:55:47.662Z,3.10
2019-05-16T12:56:48.224Z,3.10
2019-05-16T12:57:48.484Z,3.50
2019-05-16T12:58:47.276Z,3.60
2019-05-16T12:59:51.918Z,3.70
2019-05-16T13:00:54.211Z,3.50
2019-05-16T13:01:48.139Z,3.50
2019-05-16T13:02:47.392Z,3.60
2019-05-16T13:03:48.053Z,3.60
2019-05-16T13:04:47.118Z,3.50
2019-05-16T13:05:47.747Z,3.90
2019-05-16T13:06:47.090Z,3.80
2019-05-16T13:07:47.616Z,3.60
2019-05-16T13:08:46.865Z,3.70
2019-05-16T13:09:46.640Z,3.50
2019-05-16T13:10:47.113Z,3.90
2019-05-16T13:11:47.276Z,3.80
2019-05-16T13:12:45.484Z,3.70
2019-05-16T13:14:01.258Z,4.20
2019-05-16T13:14:46.480Z,3.90
2019-05-16T13:15:47.543Z,3.90
2019-05-16T13:16:47.355Z,4.00
2019-05-16T13:17:47.403Z,3.60
2019-05-16T13:18:47.461Z,3.90